VOHS

Rajiv Gandhi International Airport

Hyderabad, India
TAF VOHS 252300Z 2600/2706 13007KT 5000 HZ SCT015 SCT100 BECMG 2603/2605 21010KT 6000 SCT015 SCT025 TEMPO 2609/2616 FEW030CB BECMG 2616/2618 14007KT 5000 HZ FEW015 SCT100 TEMPO 2623/2703 VRB03KT 3000 HZ SCT010 FEW030CB BECMG 2703/2705 20010KT 6000 FEW020 SCT025
Issued Valid From Valid To
Apr-25 @ 23:00 UTC
(5 hours ago)
Apr-26 @ 00:00 UTC
(4 hours ago)
Apr-27 @ 06:00 UTC
(-1 days ago)
Expired Click to View Apr-26 @ 00:00 to Apr-26 @ 03:00
TAF VOHS 252300Z 2600/2706 13007KT 5000 HZ SCT015 SCT100
Wind Visibility Clouds Conditions
130° at 7 knots 5,005 meters
  • Scattered at 1,500' AGL
  • Scattered at 10,000' AGL
  • Haze
Becoming Apr-26 @ 03:00 to Apr-26 @ 16:00
BECMG 2603/2605 21010KT 6000 SCT015 SCT025
Wind Visibility Clouds Conditions
210° at 10 knots 6,003 meters
  • Scattered at 1,500' AGL
  • Scattered at 2,500' AGL
  • Haze
Temporary Apr-26 @ 09:00 to Apr-26 @ 16:00
TEMPO 2609/2616 FEW030CB
Clouds
  • Few at 3,000' AGL
Becoming Apr-26 @ 16:00 to Apr-27 @ 03:00
BECMG 2616/2618 14007KT 5000 HZ FEW015 SCT100
Wind Visibility Clouds Conditions
140° at 7 knots 5,005 meters
  • Few at 1,500' AGL
  • Scattered at 10,000' AGL
  • Haze
Temporary Apr-26 @ 23:00 to Apr-27 @ 03:00
TEMPO 2623/2703 VRB03KT 3000 HZ SCT010 FEW030CB
Wind Visibility Clouds Conditions
Variable at 3 knots 2,993 meters
  • Scattered at 1,000' AGL
  • Few at 3,000' AGL
  • Haze
Becoming Apr-27 @ 03:00 to Apr-27 @ 06:00
BECMG 2703/2705 20010KT 6000 FEW020 SCT025
Wind Visibility Clouds Conditions
200° at 10 knots 6,003 meters
  • Few at 2,000' AGL
  • Scattered at 2,500' AGL
  • Haze
TAF VOHS 252300Z 2600/2706 13007KT 5000 HZ SCT015 SCT100 BECMG 2603/2605 21010KT 6000 SCT015 SCT025 TEMPO 2609/2616 FEW030CB BECMG 2616/2618 14007KT 5000 HZ FEW015 SCT100 TEMPO 2623/2703 VRB03KT 3000 HZ SCT010 FEW030CB BECMG 2703/2705 20010KT 6000 FEW020 SCT025
Issued Apr-25 @ 23:00 UTC
(5 hours ago)
Valid From Apr-26 @ 00:00 UTC
(4 hours ago)
Valid To Apr-27 @ 06:00 UTC
(-1 days ago)
Apr-26 @ 00:00 - Apr-26 @ 03:00
Wind Visibility
130° at 7 knots 5,005 meters
Clouds
  • Scattered at 1,500' AGL
  • Scattered at 10,000' AGL
Conditions
  • Haze
Becoming Apr-26 @ 03:00 - Apr-26 @ 16:00
Wind Visibility
210° at 10 knots 6,003 meters
Clouds
  • Scattered at 1,500' AGL
  • Scattered at 2,500' AGL
Conditions
  • Haze
Temporary Apr-26 @ 09:00 - Apr-26 @ 16:00
Clouds
  • Few at 3,000' AGL
Becoming Apr-26 @ 16:00 - Apr-27 @ 03:00
Wind Visibility
140° at 7 knots 5,005 meters
Clouds
  • Few at 1,500' AGL
  • Scattered at 10,000' AGL
Conditions
  • Haze
Temporary Apr-26 @ 23:00 - Apr-27 @ 03:00
Wind Visibility
Variable at 3 knots 2,993 meters
Clouds
  • Scattered at 1,000' AGL
  • Few at 3,000' AGL
Conditions
  • Haze
Becoming Apr-27 @ 03:00 - Apr-27 @ 06:00
Wind Visibility
200° at 10 knots 6,003 meters
Clouds
  • Few at 2,000' AGL
  • Scattered at 2,500' AGL
Conditions
  • Haze